Time;durP1;ratioP1;P1;durP2;ratioP2;P2;SDS_P1;SDS_P2;PMS_P1;PMS_P2;Temp;Humidity;BMP_temperature;BMP_pressure;BME280_temperature;BME280_humidity;BME280_pressure;Samples;Min_cycle;Max_cycle;Signal;HPM_P1;HPM_P2
2021/05/07 00:04:05;;;;;;;3.47;1.35;;;4.20;96.50;;;;;;5898208;40;20598;-74
2021/05/07 00:08:12;;;;;;;3.80;1.20;;;4.20;96.70;;;;;;5897092;40;20084;-74
2021/05/07 00:12:18;;;;;;;4.30;1.20;;;4.10;96.60;;;;;;5895639;40;20057;-74
2021/05/07 00:16:29;;;;;;;5.45;1.40;;;4.10;97.00;;;;;;5898245;40;24165;-74
2021/05/07 00:20:33;;;;;;;3.88;1.17;;;4.10;96.80;;;;;;5910312;40;20057;-74
2021/05/07 00:24:37;;;;;;;5.40;1.40;;;4.00;96.80;;;;;;5922121;40;20052;-74
2021/05/07 00:28:41;;;;;;;5.72;1.48;;;4.10;96.80;;;;;;5912933;40;20065;-75
2021/05/07 00:32:47;;;;;;;6.00;1.10;;;4.10;96.80;;;;;;5906587;40;20060;-74
2021/05/07 00:36:56;;;;;;;3.50;1.33;;;4.00;96.60;;;;;;5908783;40;20564;-73
2021/05/07 00:41:08;;;;;;;2.72;1.20;;;4.00;96.60;;;;;;5892792;40;20079;-72
2021/05/07 00:45:14;;;;;;;5.53;1.30;;;4.00;96.60;;;;;;5903114;40;20052;-72
2021/05/07 00:49:18;;;;;;;5.50;1.30;;;3.90;96.90;;;;;;5898274;40;20065;-72
2021/05/07 00:53:28;;;;;;;4.18;1.20;;;4.00;96.60;;;;;;5913020;40;20041;-74
2021/05/07 00:57:34;;;;;;;4.28;1.10;;;4.00;96.70;;;;;;5921546;40;20073;-74
2021/05/07 01:01:38;;;;;;;3.47;1.20;;;3.90;96.60;;;;;;5904244;40;20053;-73
2021/05/07 01:05:45;;;;;;;2.10;0.95;;;3.90;96.70;;;;;;5916526;40;20088;-74
2021/05/07 01:09:51;;;;;;;5.20;1.20;;;3.90;96.70;;;;;;5905961;40;20053;-73
2021/05/07 01:13:58;;;;;;;3.85;1.20;;;3.90;96.70;;;;;;5897488;40;20060;-74
2021/05/07 01:18:03;;;;;;;3.85;1.20;;;4.40;96.80;;;;;;5911985;40;20107;-74
2021/05/07 01:22:08;;;;;;;4.15;1.23;;;3.90;96.60;;;;;;5917642;40;20057;-74
2021/05/07 01:26:12;;;;;;;2.35;1.05;;;3.80;96.60;;;;;;5917629;40;20045;-73
2021/05/07 01:30:26;;;;;;;2.03;1.05;;;3.80;96.70;;;;;;5895468;40;20067;-74
2021/05/07 01:34:30;;;;;;;4.47;1.10;;;3.80;96.70;;;;;;5898863;40;20061;-73
2021/05/07 01:38:37;;;;;;;4.60;1.27;;;4.30;96.80;;;;;;5908880;40;20053;-73
2021/05/07 01:42:46;;;;;;;2.92;1.23;;;3.70;96.70;;;;;;5907737;40;20071;-73
2021/05/07 01:46:51;;;;;;;3.40;1.25;;;3.80;96.70;;;;;;5912921;40;20085;-73
2021/05/07 01:50:58;;;;;;;4.63;1.20;;;3.70;96.60;;;;;;5914089;40;20056;-73
2021/05/07 01:55:09;;;;;;;5.50;1.50;;;3.70;96.60;;;;;;5912025;40;20045;-73
2021/05/07 01:59:22;;;;;;;6.70;1.92;;;3.70;96.70;;;;;;5904496;40;20060;-73
2021/05/07 02:03:26;;;;;;;6.40;1.60;;;3.70;96.70;;;;;;5907903;40;20053;-73
2021/05/07 02:07:35;;;;;;;3.92;1.20;;;3.70;96.60;;;;;;5913039;40;20049;-73
2021/05/07 02:11:49;;;;;;;6.50;1.60;;;3.50;96.80;;;;;;5912725;40;20044;-74
2021/05/07 02:15:55;;;;;;;4.50;1.10;;;3.60;96.80;;;;;;5914203;40;20081;-73
2021/05/07 02:20:06;;;;;;;5.25;1.63;;;3.60;96.80;;;;;;5910540;40;20049;-75
2021/05/07 02:24:11;;;;;;;4.32;1.52;;;3.50;96.70;;;;;;5892271;40;20065;-75
2021/05/07 02:28:18;;;;;;;3.92;1.40;;;3.60;97.00;;;;;;5902833;40;20796;-75
2021/05/07 02:32:23;;;;;;;4.20;1.55;;;3.50;96.80;;;;;;5900131;40;20099;-75
2021/05/07 02:36:28;;;;;;;4.80;1.55;;;3.40;96.80;;;;;;5902802;40;20096;-75
2021/05/07 02:40:32;;;;;;;3.75;1.35;;;3.50;96.80;;;;;;5892260;40;20073;-74
2021/05/07 02:44:37;;;;;;;14.73;2.78;;;3.60;96.90;;;;;;5901167;40;20049;-74
2021/05/07 02:48:41;;;;;;;3.03;1.33;;;3.60;96.30;;;;;;5903543;40;20651;-74
2021/05/07 02:52:46;;;;;;;3.95;1.40;;;3.60;96.90;;;;;;5901906;40;20131;-73
2021/05/07 02:56:50;;;;;;;6.13;1.75;;;3.60;96.90;;;;;;5902069;40;20434;-75
2021/05/07 03:00:55;;;;;;;8.70;1.90;;;3.60;96.90;;;;;;5903513;40;20045;-75
2021/05/07 03:04:59;;;;;;;5.18;1.60;;;3.70;97.00;;;;;;5912608;40;20369;-74
2021/05/07 03:09:04;;;;;;;4.78;1.67;;;3.70;97.20;;;;;;5904493;40;20064;-74
2021/05/07 03:13:08;;;;;;;5.20;1.95;;;3.70;97.00;;;;;;5905761;40;20582;-74
2021/05/07 03:17:14;;;;;;;5.78;1.73;;;4.00;97.10;;;;;;5906845;40;20628;-74
2021/05/07 03:21:19;;;;;;;4.68;1.73;;;3.80;97.00;;;;;;5912885;40;20133;-74
2021/05/07 03:25:29;;;;;;;5.88;1.88;;;3.80;97.00;;;;;;5912302;40;20719;-74
2021/05/07 03:29:33;;;;;;;6.55;2.25;;;3.80;97.00;;;;;;5913155;40;20029;-75
2021/05/07 03:33:39;;;;;;;8.30;1.95;;;3.80;97.00;;;;;;5912270;40;20041;-76
2021/05/07 03:37:44;;;;;;;9.30;1.90;;;3.80;97.10;;;;;;5912048;40;20049;-75
2021/05/07 03:41:47;;;;;;;6.40;1.85;;;3.80;97.20;;;;;;5912849;40;20509;-76
2021/05/07 03:45:52;;;;;;;7.10;1.75;;;3.80;97.30;;;;;;5910713;40;20040;-75
2021/05/07 03:49:59;;;;;;;5.57;1.80;;;3.80;97.30;;;;;;5893336;40;20096;-75
2021/05/07 03:54:06;;;;;;;6.97;2.13;;;3.80;97.30;;;;;;5910040;40;20045;-76
2021/05/07 03:58:15;;;;;;;6.60;2.05;;;3.90;97.30;;;;;;5903575;40;20056;-75
2021/05/07 04:02:21;;;;;;;6.78;2.38;;;3.90;97.30;;;;;;5913181;40;20530;-76
2021/05/07 04:06:27;;;;;;;6.15;1.80;;;3.90;97.40;;;;;;5904670;40;20097;-76
2021/05/07 04:10:35;;;;;;;6.70;1.67;;;3.30;97.40;;;;;;5903004;40;20053;-75
2021/05/07 04:14:42;;;;;;;5.35;1.52;;;3.90;97.50;;;;;;5893925;40;20053;-75
2021/05/07 04:18:55;;;;;;;5.78;1.40;;;3.90;97.40;;;;;;5901848;40;20071;-75
2021/05/07 04:23:03;;;;;;;3.63;1.30;;;4.00;97.50;;;;;;5890465;40;20422;-75
2021/05/07 04:27:05;;;;;;;4.95;1.38;;;3.00;97.40;;;;;;5898075;40;20698;-75
2021/05/07 04:31:06;;;;;;;4.82;1.60;;;4.00;97.40;;;;;;5892434;40;20138;-75
2021/05/07 04:35:13;;;;;;;4.10;1.10;;;4.00;97.60;;;;;;5905241;40;20052;-74
2021/05/07 04:39:17;;;;;;;3.88;1.20;;;4.00;97.60;;;;;;5898874;40;20561;-74
2021/05/07 04:43:23;;;;;;;2.90;0.80;;;4.10;97.80;;;;;;5899586;40;20809;-74
2021/05/07 04:47:34;;;;;;;2.35;0.85;;;4.10;97.70;;;;;;5901076;40;20045;-74
2021/05/07 04:51:48;;;;;;;4.20;1.20;;;4.00;97.50;;;;;;5900057;40;20056;-75
2021/05/07 04:55:54;;;;;;;2.35;0.90;;;4.10;97.70;;;;;;5901528;40;20061;-75
2021/05/07 04:59:58;;;;;;;4.78;0.90;;;4.10;97.80;;;;;;5899877;40;20100;-76
2021/05/07 05:04:05;;;;;;;4.80;0.80;;;4.10;97.80;;;;;;5915870;40;20719;-74
2021/05/07 05:08:09;;;;;;;5.07;1.05;;;4.20;98.00;;;;;;5909808;40;20053;-75
2021/05/07 05:12:13;;;;;;;4.97;1.10;;;4.10;97.70;;;;;;5913506;40;20053;-75
2021/05/07 05:16:19;;;;;;;2.03;0.90;;;4.20;98.00;;;;;;5906056;40;20044;-75
2021/05/07 05:20:23;;;;;;;4.72;1.00;;;5.60;98.30;;;;;;5904026;40;20079;-75
2021/05/07 05:24:27;;;;;;;6.15;1.40;;;4.10;97.90;;;;;;5896806;40;20634;-76
2021/05/07 05:28:35;;;;;;;3.92;1.30;;;4.30;98.00;;;;;;5903382;40;20060;-74
2021/05/07 05:32:44;;;;;;;5.72;1.35;;;4.30;98.00;;;;;;5913847;40;20045;-75
2021/05/07 05:36:51;;;;;;;3.80;1.10;;;4.30;98.10;;;;;;5912986;40;20061;-75
2021/05/07 05:40:55;;;;;;;2.95;1.10;;;4.40;98.60;;;;;;5913583;40;20061;-75
2021/05/07 05:44:59;;;;;;;3.65;0.98;;;4.40;98.10;;;;;;5911620;40;20081;-74
2021/05/07 05:49:05;;;;;;;5.93;1.25;;;4.50;97.90;;;;;;5917595;40;20080;-71
2021/05/07 05:53:10;;;;;;;5.18;1.30;;;4.50;97.90;;;;;;5903270;40;20429;-72
2021/05/07 05:57:16;;;;;;;3.92;0.98;;;4.60;98.20;;;;;;5890475;40;20076;-71
2021/05/07 06:01:20;;;;;;;4.82;1.10;;;4.60;98.00;;;;;;5904235;40;20052;-71
2021/05/07 06:05:25;;;;;;;4.40;0.70;;;4.70;97.90;;;;;;5900049;40;20049;-71
2021/05/07 06:09:29;;;;;;;1.85;0.70;;;4.70;98.00;;;;;;5906826;40;20089;-72
2021/05/07 06:13:34;;;;;;;1.27;0.60;;;4.80;98.00;;;;;;5899951;40;20056;-71
2021/05/07 06:17:39;;;;;;;0.90;0.50;;;4.90;98.10;;;;;;5910765;40;20063;-72
2021/05/07 06:21:45;;;;;;;2.28;0.52;;;4.90;98.00;;;;;;5912332;40;20045;-72
2021/05/07 06:25:50;;;;;;;1.52;0.50;;;5.00;98.00;;;;;;5908973;40;20089;-71
2021/05/07 06:29:54;;;;;;;1.80;0.60;;;5.10;98.20;;;;;;5906477;40;20606;-71
2021/05/07 06:33:58;;;;;;;1.10;0.60;;;5.10;98.00;;;;;;5905501;40;20053;-71
2021/05/07 06:38:06;;;;;;;1.25;0.40;;;4.80;97.90;;;;;;5909539;40;20068;-72
2021/05/07 06:42:12;;;;;;;2.05;0.68;;;5.20;98.00;;;;;;5908851;40;20056;-71
2021/05/07 06:46:23;;;;;;;2.05;0.68;;;5.20;98.00;;;;;;5907582;40;20730;-71
2021/05/07 06:50:27;;;;;;;1.42;0.63;;;5.20;98.00;;;;;;5907647;40;20053;-71
2021/05/07 06:54:31;;;;;;;1.90;0.82;;;5.30;98.00;;;;;;5909235;40;20119;-71
2021/05/07 06:58:37;;;;;;;0.95;0.60;;;5.30;98.00;;;;;;5903532;40;20051;-71
2021/05/07 07:02:43;;;;;;;1.35;0.57;;;5.40;97.90;;;;;;5902852;40;20538;-72
2021/05/07 07:06:50;;;;;;;2.38;0.90;;;5.50;98.00;;;;;;5906753;40;20134;-72
2021/05/07 07:10:56;;;;;;;1.40;0.90;;;5.50;97.90;;;;;;5907521;40;20060;-71
2021/05/07 07:14:57;;;;;;;1.75;0.73;;;5.50;97.90;;;;;;5905326;40;20086;-72
2021/05/07 07:19:04;;;;;;;1.77;0.90;;;5.40;97.80;;;;;;5906521;40;20122;-72
2021/05/07 07:23:16;;;;;;;1.37;0.87;;;5.30;97.90;;;;;;5907121;40;20076;-72
2021/05/07 07:27:22;;;;;;;2.17;0.60;;;5.40;98.00;;;;;;5906555;40;20048;-71
2021/05/07 07:31:26;;;;;;;2.67;0.70;;;5.30;97.90;;;;;;5905807;40;20143;-71
2021/05/07 07:35:30;;;;;;;3.40;0.80;;;5.30;98.10;;;;;;5895251;40;20056;-71
2021/05/07 07:39:39;;;;;;;1.25;0.70;;;5.30;98.20;;;;;;5909230;40;20158;-72
2021/05/07 07:43:46;;;;;;;3.50;0.95;;;5.40;98.30;;;;;;5909550;40;20017;-71
2021/05/07 07:47:52;;;;;;;3.70;0.93;;;5.60;98.10;;;;;;5895716;40;20048;-71
2021/05/07 07:51:58;;;;;;;1.50;0.65;;;5.70;98.10;;;;;;5905667;40;20166;-72
2021/05/07 07:56:03;;;;;;;2.10;0.70;;;5.90;98.20;;;;;;5906604;40;20060;-71
2021/05/07 08:00:08;;;;;;;2.60;0.80;;;5.90;98.10;;;;;;5910494;40;20059;-71
2021/05/07 08:04:16;;;;;;;1.13;0.60;;;6.10;98.00;;;;;;5906062;40;20063;-71
2021/05/07 08:08:20;;;;;;;1.20;0.60;;;6.20;98.40;;;;;;5903599;40;20048;-72
2021/05/07 08:12:30;;;;;;;1.30;0.55;;;6.30;98.00;;;;;;5907953;40;20053;-71
2021/05/07 08:16:34;;;;;;;1.80;0.50;;;6.40;97.90;;;;;;5910320;40;20460;-72
2021/05/07 08:20:38;;;;;;;1.30;0.50;;;6.50;97.80;;;;;;5906669;40;20052;-71
2021/05/07 08:24:43;;;;;;;2.38;0.60;;;6.50;97.80;;;;;;5908119;40;20320;-71
2021/05/07 08:28:50;;;;;;;5.05;1.00;;;6.50;97.70;;;;;;5903670;40;20069;-71
2021/05/07 08:32:54;;;;;;;2.67;0.65;;;6.50;97.70;;;;;;5896871;40;20069;-71
2021/05/07 08:36:55;;;;;;;1.67;0.70;;;6.40;97.80;;;;;;5899578;40;20254;-71
2021/05/07 08:41:04;;;;;;;2.97;0.63;;;6.30;97.90;;;;;;5903719;40;20056;-71
2021/05/07 08:45:10;;;;;;;1.52;0.73;;;6.30;98.30;;;;;;5904052;40;20049;-71
2021/05/07 08:49:20;;;;;;;5.25;1.17;;;6.30;98.40;;;;;;5907336;40;20064;-71
2021/05/07 08:53:26;;;;;;;2.40;0.70;;;6.40;98.50;;;;;;5902505;40;20134;-71
2021/05/07 08:57:32;;;;;;;1.92;0.80;;;6.60;98.60;;;;;;5915074;40;20127;-71
2021/05/07 09:01:50;;;;;;;3.63;1.00;;;6.70;98.40;;;;;;5906714;40;20053;-71
2021/05/07 09:05:55;;;;;;;3.80;0.82;;;6.80;98.40;;;;;;5904076;40;20108;-71
2021/05/07 09:10:01;;;;;;;3.47;0.90;;;7.00;98.50;;;;;;5895772;40;20404;-70
2021/05/07 09:14:05;;;;;;;3.13;0.90;;;7.30;98.20;;;;;;5904445;40;20313;-71
2021/05/07 09:18:13;;;;;;;3.70;1.20;;;7.60;98.50;;;;;;5907180;40;20676;-71
2021/05/07 09:22:25;;;;;;;3.95;1.02;;;8.00;98.70;;;;;;5903766;40;20093;-71
2021/05/07 09:26:29;;;;;;;5.68;1.05;;;8.30;98.20;;;;;;5902956;40;20060;-70
2021/05/07 09:30:34;;;;;;;5.80;1.10;;;8.50;97.80;;;;;;5904557;40;20045;-70
2021/05/07 09:34:42;;;;;;;4.20;1.30;;;8.50;97.80;;;;;;5906042;40;20135;-70
2021/05/07 09:38:46;;;;;;;4.32;1.00;;;8.50;97.80;;;;;;5911406;40;20061;-70
2021/05/07 09:43:11;;;;;;;6.15;1.10;;;8.60;97.80;;;;;;5902662;40;20029;-70
2021/05/07 09:47:16;;;;;;;2.10;0.80;;;8.50;97.80;;;;;;5912118;40;20081;-70
2021/05/07 09:51:40;;;;;;;9.82;1.40;;;8.40;97.90;;;;;;5907557;40;20079;-70
2021/05/07 09:55:51;;;;;;;8.57;1.13;;;8.30;97.40;;;;;;5904680;40;20093;-70
2021/05/07 09:59:56;;;;;;;6.32;1.05;;;8.30;97.30;;;;;;5905746;40;20053;-70
2021/05/07 10:04:01;;;;;;;5.88;1.20;;;8.20;97.40;;;;;;5906908;40;20048;-72
2021/05/07 10:08:07;;;;;;;4.03;1.40;;;8.40;97.30;;;;;;5905059;40;20096;-72
2021/05/07 10:12:14;;;;;;;4.07;0.90;;;8.70;97.10;;;;;;5905064;40;20078;-72
2021/05/07 10:16:29;;;;;;;3.42;0.80;;;9.10;96.50;;;;;;5905416;40;20069;-72
2021/05/07 10:20:35;;;;;;;5.57;0.90;;;9.40;95.60;;;;;;5905745;40;20079;-72
2021/05/07 10:24:46;;;;;;;3.42;0.85;;;9.50;95.00;;;;;;5899699;40;20417;-72
2021/05/07 10:28:52;;;;;;;3.83;0.60;;;9.50;95.20;;;;;;5913477;40;20069;-72
2021/05/07 10:33:08;;;;;;;2.75;0.88;;;9.50;94.30;;;;;;5903161;40;20055;-72
2021/05/07 10:37:13;;;;;;;3.60;0.90;;;9.80;94.20;;;;;;5899877;40;20440;-72
2021/05/07 10:41:18;;;;;;;5.35;1.10;;;10.00;93.30;;;;;;5897467;40;20048;-72
2021/05/07 10:45:38;;;;;;;3.35;0.73;;;10.00;93.80;;;;;;5912709;40;20037;-72
2021/05/07 10:49:44;;;;;;;4.13;0.73;;;10.10;93.90;;;;;;5903470;40;20049;-72
2021/05/07 10:53:52;;;;;;;3.85;0.80;;;10.20;93.90;;;;;;5901865;40;20074;-72
2021/05/07 10:57:58;;;;;;;2.67;0.65;;;10.30;93.70;;;;;;5906869;40;20060;-72
2021/05/07 11:02:04;;;;;;;3.33;0.73;;;10.20;92.90;;;;;;5907249;40;20091;-72
2021/05/07 11:06:10;;;;;;;3.20;0.80;;;10.20;93.60;;;;;;5906308;40;20403;-72
2021/05/07 11:10:15;;;;;;;3.83;0.70;;;10.20;93.10;;;;;;5906204;40;20146;-73
2021/05/07 11:14:24;;;;;;;3.67;0.88;;;10.20;91.90;;;;;;5907115;40;20037;-73
2021/05/07 11:18:32;;;;;;;4.07;0.93;;;10.40;91.50;;;;;;5908730;40;20084;-72
2021/05/07 11:22:40;;;;;;;3.92;0.77;;;10.70;91.60;;;;;;5908177;40;20327;-71
2021/05/07 11:26:44;;;;;;;3.28;0.82;;;10.90;91.90;;;;;;5907081;40;20049;-72
2021/05/07 11:30:53;;;;;;;4.20;0.80;;;11.00;90.90;;;;;;5906557;40;20065;-72
2021/05/07 11:34:59;;;;;;;2.40;0.95;;;11.00;91.20;;;;;;5907280;40;20538;-73
2021/05/07 11:39:15;;;;;;;4.95;0.90;;;11.00;90.70;;;;;;5907354;40;20057;-72
2021/05/07 11:43:24;;;;;;;2.80;0.98;;;10.90;90.80;;;;;;5904664;40;20067;-72
2021/05/07 11:47:32;;;;;;;2.58;0.80;;;10.90;91.00;;;;;;5906201;40;20037;-73
2021/05/07 11:51:45;;;;;;;3.78;0.90;;;10.80;91.40;;;;;;5906485;40;20037;-73
2021/05/07 11:55:50;;;;;;;2.53;0.70;;;10.70;91.20;;;;;;5907712;40;20064;-73
2021/05/07 11:59:58;;;;;;;2.22;0.60;;;10.60;92.10;;;;;;5895582;40;20094;-72
2021/05/07 12:04:05;;;;;;;4.53;1.00;;;10.50;92.00;;;;;;5899562;40;20061;-72
2021/05/07 12:08:10;;;;;;;4.68;1.08;;;10.00;91.70;;;;;;5909028;40;20093;-72
2021/05/07 12:12:15;;;;;;;5.32;0.90;;;10.30;92.00;;;;;;5907463;40;20064;-72
2021/05/07 12:16:36;;;;;;;6.78;0.77;;;10.50;92.20;;;;;;5901158;40;20065;-72
2021/05/07 12:20:44;;;;;;;3.15;0.70;;;10.80;92.20;;;;;;5907063;40;20094;-72
2021/05/07 12:24:51;;;;;;;4.03;0.73;;;11.20;91.10;;;;;;5905174;40;20416;-72
2021/05/07 12:28:57;;;;;;;2.50;0.70;;;11.40;90.60;;;;;;5906191;40;20056;-73
2021/05/07 12:33:06;;;;;;;4.70;1.17;;;11.30;90.60;;;;;;5905957;40;20052;-72
2021/05/07 12:37:10;;;;;;;2.40;0.63;;;11.00;89.70;;;;;;5906560;40;20045;-72
2021/05/07 12:41:22;;;;;;;5.50;0.80;;;10.80;91.30;;;;;;5911575;40;20057;-72
2021/05/07 12:45:28;;;;;;;3.15;0.60;;;10.70;91.20;;;;;;5916770;40;20037;-72
2021/05/07 12:49:37;;;;;;;4.45;0.60;;;10.70;91.50;;;;;;5910465;40;20134;-72
2021/05/07 12:53:42;;;;;;;3.42;0.75;;;10.70;91.40;;;;;;5908915;40;20033;-72
2021/05/07 12:57:49;;;;;;;3.47;0.63;;;10.80;91.20;;;;;;5909313;40;20057;-72
2021/05/07 13:01:57;;;;;;;5.10;0.90;;;10.90;91.80;;;;;;5910122;40;20070;-72
2021/05/07 13:06:02;;;;;;;11.90;1.08;;;11.10;91.30;;;;;;5910447;40;20478;-72
2021/05/07 13:10:09;;;;;;;1.40;0.43;;;11.00;90.80;;;;;;5906750;40;20055;-73
2021/05/07 13:14:15;;;;;;;3.33;1.00;;;10.80;91.60;;;;;;5909347;40;20152;-72
2021/05/07 13:18:22;;;;;;;4.00;0.75;;;10.50;92.40;;;;;;5905175;40;20093;-72
2021/05/07 13:22:29;;;;;;;1.80;0.70;;;10.00;93.60;;;;;;5908346;40;20056;-72
2021/05/07 13:26:33;;;;;;;2.78;0.50;;;9.90;94.30;;;;;;5909122;40;20577;-72
2021/05/07 13:30:38;;;;;;;3.38;0.70;;;9.70;94.60;;;;;;5909709;40;20053;-72
2021/05/07 13:34:44;;;;;;;2.22;0.70;;;9.70;94.80;;;;;;5908425;40;20049;-72
2021/05/07 13:38:51;;;;;;;4.70;1.00;;;9.80;95.10;;;;;;5908458;40;20421;-73
2021/05/07 13:42:57;;;;;;;5.38;1.42;;;10.00;94.70;;;;;;5907037;40;20076;-72
2021/05/07 13:47:02;;;;;;;2.97;0.68;;;10.20;93.80;;;;;;5905224;40;20042;-73
2021/05/07 13:51:06;;;;;;;1.73;0.50;;;10.10;93.50;;;;;;5912294;40;20053;-72
2021/05/07 13:55:10;;;;;;;1.20;0.50;;;9.80;93.90;;;;;;5908102;40;20648;-73
2021/05/07 13:59:19;;;;;;;4.40;1.05;;;9.50;94.50;;;;;;5917663;40;20065;-73
2021/05/07 14:03:26;;;;;;;4.53;0.90;;;9.20;95.20;;;;;;5905062;40;20100;-73
2021/05/07 14:07:30;;;;;;;5.63;1.65;;;9.20;95.70;;;;;;5907547;40;20041;-73
2021/05/07 14:11:35;;;;;;;7.55;1.67;;;9.30;95.70;;;;;;5906195;40;20110;-73
2021/05/07 14:15:39;;;;;;;3.50;1.40;;;9.40;95.70;;;;;;5909420;40;20049;-73
2021/05/07 14:19:43;;;;;;;3.30;0.90;;;9.50;95.50;;;;;;5904552;40;20061;-73
2021/05/07 14:23:49;;;;;;;1.48;0.70;;;9.30;94.60;;;;;;5902816;40;20081;-72
2021/05/07 14:27:53;;;;;;;2.58;0.90;;;9.30;94.70;;;;;;5905018;40;20048;-73
2021/05/07 14:32:00;;;;;;;10.32;1.60;;;9.30;94.20;;;;;;5908684;40;20061;-73
2021/05/07 14:36:04;;;;;;;5.20;1.10;;;9.20;94.00;;;;;;5910276;40;20134;-73
2021/05/07 14:40:12;;;;;;;2.60;0.80;;;9.30;94.00;;;;;;5912715;40;20064;-73
2021/05/07 14:44:17;;;;;;;5.93;1.50;;;9.40;94.00;;;;;;5907023;40;20038;-73
2021/05/07 14:48:21;;;;;;;6.53;1.35;;;9.50;94.00;;;;;;5907044;40;21022;-73
2021/05/07 14:52:26;;;;;;;4.93;1.05;;;9.60;93.50;;;;;;5904775;40;20058;-73
2021/05/07 14:56:30;;;;;;;4.40;1.45;;;9.70;93.90;;;;;;5910878;40;20057;-72
2021/05/07 15:00:39;;;;;;;10.48;1.88;;;9.70;93.40;;;;;;5905151;40;20053;-72
2021/05/07 15:04:44;;;;;;;9.35;1.85;;;9.80;92.70;;;;;;5904484;40;20510;-73
2021/05/07 15:08:50;;;;;;;7.40;1.70;;;10.20;92.50;;;;;;5907371;40;20060;-73
2021/05/07 15:12:54;;;;;;;5.30;1.42;;;9.70;92.70;;;;;;5910228;40;20045;-72
2021/05/07 15:16:58;;;;;;;6.68;1.80;;;9.60;92.40;;;;;;5904834;40;20418;-73
2021/05/07 15:21:03;;;;;;;8.45;1.85;;;9.60;92.20;;;;;;5906856;40;20060;-73
2021/05/07 15:25:11;;;;;;;9.73;1.70;;;9.70;92.60;;;;;;5907698;40;20048;-73
2021/05/07 15:29:17;;;;;;;9.55;1.70;;;9.70;92.10;;;;;;5907512;40;20439;-73
2021/05/07 15:33:21;;;;;;;9.65;1.60;;;9.70;92.20;;;;;;5904813;40;20061;-73
2021/05/07 15:37:28;;;;;;;12.95;1.90;;;9.70;92.40;;;;;;5894376;40;20395;-73
2021/05/07 15:41:32;;;;;;;14.77;1.98;;;9.30;92.20;;;;;;5902714;40;20064;-72
2021/05/07 15:45:38;;;;;;;10.63;2.55;;;9.60;92.20;;;;;;5905957;40;20036;-73
2021/05/07 15:49:43;;;;;;;8.68;2.20;;;9.60;92.60;;;;;;5908118;40;20082;-73
2021/05/07 15:53:49;;;;;;;11.20;2.35;;;9.60;92.50;;;;;;5910378;40;20041;-73
2021/05/07 15:57:54;;;;;;;11.57;2.05;;;9.50;92.50;;;;;;5893783;40;20084;-72
2021/05/07 16:01:59;;;;;;;11.65;2.20;;;9.40;92.70;;;;;;5905420;40;20045;-73
2021/05/07 16:06:10;;;;;;;9.90;2.15;;;9.40;93.10;;;;;;5906603;40;20134;-73
2021/05/07 16:10:16;;;;;;;13.23;2.38;;;9.30;93.10;;;;;;5900120;40;20073;-73
2021/05/07 16:14:21;;;;;;;9.15;2.55;;;9.30;93.20;;;;;;5899562;40;20514;-73
2021/05/07 16:18:30;;;;;;;8.07;2.03;;;9.30;93.40;;;;;;5906042;40;20115;-73
2021/05/07 16:22:34;;;;;;;11.23;2.50;;;9.20;93.70;;;;;;5912366;40;20119;-74
2021/05/07 16:26:43;;;;;;;12.40;2.47;;;9.20;94.00;;;;;;5900086;40;20057;-73
2021/05/07 16:30:48;;;;;;;14.50;4.00;;;9.20;93.90;;;;;;5908250;40;20063;-73
2021/05/07 16:34:54;;;;;;;14.70;3.42;;;9.20;94.20;;;;;;5906229;40;20092;-73
2021/05/07 16:39:01;;;;;;;15.57;3.20;;;9.20;94.20;;;;;;5897640;40;20060;-73
2021/05/07 16:43:05;;;;;;;10.75;2.15;;;9.20;94.30;;;;;;5905690;40;20049;-73
2021/05/07 16:47:14;;;;;;;12.40;2.40;;;9.20;94.10;;;;;;5907988;40;20072;-73
2021/05/07 16:51:21;;;;;;;13.32;3.70;;;9.20;93.60;;;;;;5907428;40;20057;-72
2021/05/07 16:55:26;;;;;;;15.88;3.60;;;9.10;93.50;;;;;;5903836;40;20061;-72
2021/05/07 16:59:28;;;;;;;10.73;2.80;;;9.10;93.50;;;;;;5907072;40;20057;-73
2021/05/07 17:03:35;;;;;;;11.95;2.92;;;9.10;93.60;;;;;;5906139;40;20045;-73
2021/05/07 17:07:42;;;;;;;19.83;4.40;;;9.10;93.80;;;;;;5904788;40;20108;-73
2021/05/07 17:11:46;;;;;;;16.33;3.80;;;9.10;93.60;;;;;;5912004;40;20049;-73
2021/05/07 17:15:50;;;;;;;12.52;2.40;;;9.10;93.80;;;;;;5906459;40;20073;-72
2021/05/07 17:19:58;;;;;;;13.95;2.83;;;9.10;93.60;;;;;;5906452;40;20049;-73
2021/05/07 17:24:04;;;;;;;9.18;2.58;;;9.10;93.50;;;;;;5906454;40;20053;-73
2021/05/07 17:28:08;;;;;;;15.95;3.70;;;9.10;92.90;;;;;;5909220;40;20087;-73
2021/05/07 17:32:15;;;;;;;19.33;5.90;;;9.00;93.00;;;;;;5906334;40;20379;-73
2021/05/07 17:36:20;;;;;;;12.98;3.45;;;8.90;93.20;;;;;;5905984;40;20067;-73
2021/05/07 17:40:26;;;;;;;14.63;5.10;;;8.90;93.30;;;;;;5907895;40;20774;-73
2021/05/07 17:44:30;;;;;;;16.40;3.00;;;8.90;93.30;;;;;;5904335;40;20052;-73
2021/05/07 17:48:42;;;;;;;15.45;4.50;;;8.70;93.40;;;;;;5905380;40;20060;-73
2021/05/07 17:52:56;;;;;;;14.93;4.22;;;8.70;93.70;;;;;;5909497;40;20098;-73
2021/05/07 17:57:04;;;;;;;25.90;3.58;;;8.50;93.80;;;;;;5905010;40;20045;-73
2021/05/07 21:06:37;;;;;;;14.52;2.85;;;6.90;96.60;;;;;;5892977;40;20055;-75
2021/05/07 21:10:46;;;;;;;16.92;3.35;;;6.80;96.50;;;;;;5915205;40;20057;-74
2021/05/07 21:14:50;;;;;;;13.82;3.35;;;6.80;96.70;;;;;;5914077;40;20045;-75
2021/05/07 21:18:59;;;;;;;16.65;3.30;;;6.80;96.80;;;;;;5907142;40;20070;-74
2021/05/07 21:23:00;;;;;;;16.25;3.70;;;6.80;96.60;;;;;;5919419;40;20047;-74
2021/05/07 21:27:05;;;;;;;16.08;3.35;;;6.80;96.60;;;;;;5912415;40;20045;-75
2021/05/07 21:31:12;;;;;;;14.32;3.45;;;6.70;96.60;;;;;;5916804;40;20416;-75
2021/05/07 21:35:16;;;;;;;17.70;4.20;;;6.60;96.60;;;;;;5915495;40;20060;-75
2021/05/07 21:39:21;;;;;;;16.60;3.47;;;6.60;96.60;;;;;;5911311;40;20064;-75
2021/05/07 21:43:26;;;;;;;15.57;3.40;;;6.60;96.60;;;;;;5917054;40;20427;-76
2021/05/07 21:47:30;;;;;;;13.00;3.40;;;6.60;96.60;;;;;;5917299;40;20064;-74
2021/05/07 21:51:35;;;;;;;15.73;3.70;;;6.50;96.60;;;;;;5911581;40;20057;-75
2021/05/07 21:55:40;;;;;;;15.00;3.13;;;6.50;96.50;;;;;;5902612;40;20283;-74
2021/05/07 21:59:46;;;;;;;15.88;3.17;;;6.50;96.60;;;;;;5906058;40;20142;-73
2021/05/07 22:03:50;;;;;;;17.05;3.38;;;6.50;96.90;;;;;;5917418;40;20045;-73
2021/05/07 22:07:57;;;;;;;17.17;3.17;;;6.40;96.60;;;;;;5910426;40;20143;-74
2021/05/07 22:12:09;;;;;;;13.93;2.80;;;6.40;96.60;;;;;;5908913;40;20062;-74
2021/05/07 22:16:19;;;;;;;16.90;3.35;;;6.30;96.90;;;;;;5909448;40;20706;-74
2021/05/07 22:20:24;;;;;;;21.27;3.78;;;6.40;96.80;;;;;;5913565;40;20057;-74
2021/05/07 22:24:33;;;;;;;17.98;3.55;;;6.30;96.80;;;;;;5911032;40;20076;-74
2021/05/07 22:28:37;;;;;;;12.48;2.85;;;6.30;96.70;;;;;;5917847;40;20056;-74
2021/05/07 22:32:42;;;;;;;16.55;3.63;;;6.40;96.70;;;;;;5910138;40;20052;-73
2021/05/07 22:36:46;;;;;;;14.50;3.08;;;6.30;96.80;;;;;;5908670;40;20093;-74
2021/05/07 22:40:50;;;;;;;9.50;3.40;;;6.30;96.60;;;;;;5913790;40;20051;-74
2021/05/07 22:44:59;;;;;;;16.67;3.58;;;6.40;96.70;;;;;;5911135;40;20041;-75
2021/05/07 22:49:05;;;;;;;14.27;3.70;;;6.40;96.60;;;;;;5912342;40;21670;-74
2021/05/07 22:53:10;;;;;;;14.73;3.13;;;6.40;96.50;;;;;;5921929;40;20132;-74
2021/05/07 22:57:14;;;;;;;14.60;3.33;;;6.40;96.50;;;;;;5911203;40;20045;-74
2021/05/07 23:01:19;;;;;;;17.45;3.80;;;6.30;96.50;;;;;;5913419;40;20116;-74
2021/05/07 23:05:23;;;;;;;25.70;3.35;;;6.20;96.40;;;;;;5912232;40;20120;-73
2021/05/07 23:09:27;;;;;;;13.75;3.78;;;6.30;96.40;;;;;;5911109;40;20465;-71
2021/05/07 23:13:31;;;;;;;19.33;3.20;;;6.20;96.20;;;;;;5912158;40;20138;-74
2021/05/07 23:17:36;;;;;;;11.23;3.20;;;6.10;96.20;;;;;;5914829;40;20053;-74
2021/05/07 23:21:43;;;;;;;12.77;2.58;;;6.10;96.20;;;;;;5911511;40;20053;-73
2021/05/07 23:25:50;;;;;;;12.65;3.22;;;6.10;96.20;;;;;;5912845;40;20056;-73
2021/05/07 23:29:58;;;;;;;14.75;3.00;;;6.00;96.20;;;;;;5909792;40;20061;-73
2021/05/07 23:34:03;;;;;;;11.00;3.00;;;6.00;96.20;;;;;;5912440;40;20045;-73
2021/05/07 23:38:07;;;;;;;13.32;2.60;;;6.00;96.10;;;;;;5913369;40;20064;-74
2021/05/07 23:42:13;;;;;;;12.57;2.97;;;5.90;96.20;;;;;;5903649;40;20049;-72
2021/05/07 23:46:20;;;;;;;19.85;4.00;;;5.80;96.20;;;;;;5908851;40;20077;-73
2021/05/07 23:50:24;;;;;;;14.63;3.00;;;5.70;96.20;;;;;;5909320;40;20058;-73
2021/05/07 23:54:31;;;;;;;11.88;2.95;;;5.70;96.20;;;;;;5913345;40;20689;-73
2021/05/07 23:58:35;;;;;;;11.73;2.72;;;5.60;96.20;;;;;;5907144;40;20404;-73
